Top menue

JP Smooth Gallery Module

EDLT

Telgte Info: 122.850 Mhz

EDLT

EDLT

Telgte Info: 122.850 Mhz

EDLT

EDLT

Telgte Info: 122.850 Mhz

EDLT
Error
  • You are not authorised to view this resource.

METAR: EDDG

[source: ADDS]
METAR
EDDG 220920Z 23011KT 200V270 CAVOK 23/13 Q1023 NOSIG =
TAF EDDG 220500Z 2206/2306 VRB03KT CAVOK TEMPO 2208/2218 24009KT
TAF
TAF EDDG 220500Z 2206/2306 VRB03KT CAVOK TEMPO 2208/2218 24009KT =
Cookies make it easier for us to provide you with our services. With the usage of our services you permit us to use cookies.
Ok Decline